sensor_id;sensor_type;location;lat;lon;timestamp;temperature;humidity
43808;DHT22;29438;50.664;10.098;2024-01-15T00:02:11;-3273.60;92.30
43808;DHT22;29438;50.664;10.098;2024-01-15T00:04:38;-3273.60;92.20
43808;DHT22;29438;50.664;10.098;2024-01-15T00:07:04;-3273.60;92.10
43808;DHT22;29438;50.664;10.098;2024-01-15T00:09:29;-3273.60;92.10
43808;DHT22;29438;50.664;10.098;2024-01-15T00:11:55;-3273.60;92.00
43808;DHT22;29438;50.664;10.098;2024-01-15T00:14:20;-3273.60;92.00
43808;DHT22;29438;50.664;10.098;2024-01-15T00:16:47;-3273.60;92.00
43808;DHT22;29438;50.664;10.098;2024-01-15T00:19:14;-3273.60;91.80
43808;DHT22;29438;50.664;10.098;2024-01-15T00:21:39;-3273.60;91.70
43808;DHT22;29438;50.664;10.098;2024-01-15T00:24:05;-3273.60;91.60
43808;DHT22;29438;50.664;10.098;2024-01-15T00:26:30;-3273.60;91.60
43808;DHT22;29438;50.664;10.098;2024-01-15T00:28:56;-3273.60;91.50
43808;DHT22;29438;50.664;10.098;2024-01-15T00:31:21;-3273.60;91.50
43808;DHT22;29438;50.664;10.098;2024-01-15T00:33:47;-3273.60;91.50
43808;DHT22;29438;50.664;10.098;2024-01-15T00:36:12;-3273.60;91.50
43808;DHT22;29438;50.664;10.098;2024-01-15T00:38:39;-3273.60;91.50
43808;DHT22;29438;50.664;10.098;2024-01-15T00:41:05;-3273.60;91.40
43808;DHT22;29438;50.664;10.098;2024-01-15T00:43:30;-3273.60;91.50
43808;DHT22;29438;50.664;10.098;2024-01-15T00:45:56;-3273.60;91.40
43808;DHT22;29438;50.664;10.098;2024-01-15T00:48:21;-3273.70;91.40
43808;DHT22;29438;50.664;10.098;2024-01-15T00:50:47;-3273.60;91.30
43808;DHT22;29438;50.664;10.098;2024-01-15T00:53:12;-3273.60;91.10
43808;DHT22;29438;50.664;10.098;2024-01-15T00:55:38;-3273.60;91.20
43808;DHT22;29438;50.664;10.098;2024-01-15T00:58:04;-3273.60;91.10
43808;DHT22;29438;50.664;10.098;2024-01-15T01:00:29;-3273.50;91.10
43808;DHT22;29438;50.664;10.098;2024-01-15T01:02:54;-3273.50;91.10
43808;DHT22;29438;50.664;10.098;2024-01-15T01:05:20;-3273.50;91.00
43808;DHT22;29438;50.664;10.098;2024-01-15T01:07:46;-3273.50;91.10
43808;DHT22;29438;50.664;10.098;2024-01-15T01:10:11;-3273.50;91.10
43808;DHT22;29438;50.664;10.098;2024-01-15T01:12:37;-3273.50;91.10
43808;DHT22;29438;50.664;10.098;2024-01-15T01:15:02;-3273.50;91.00
43808;DHT22;29438;50.664;10.098;2024-01-15T01:17:28;-3273.50;91.10
43808;DHT22;29438;50.664;10.098;2024-01-15T01:19:54;-3273.50;91.00
43808;DHT22;29438;50.664;10.098;2024-01-15T01:22:19;-3273.50;90.90
43808;DHT22;29438;50.664;10.098;2024-01-15T01:24:45;-3273.60;90.90
43808;DHT22;29438;50.664;10.098;2024-01-15T01:27:10;-3273.60;90.80
43808;DHT22;29438;50.664;10.098;2024-01-15T01:29:36;-3273.60;90.70
43808;DHT22;29438;50.664;10.098;2024-01-15T01:32:01;-3273.60;90.70
43808;DHT22;29438;50.664;10.098;2024-01-15T01:34:27;-3273.60;90.60
43808;DHT22;29438;50.664;10.098;2024-01-15T01:36:53;-3273.60;90.40
43808;DHT22;29438;50.664;10.098;2024-01-15T01:39:18;-3273.60;90.20
43808;DHT22;29438;50.664;10.098;2024-01-15T01:41:43;-3273.60;90.20
43808;DHT22;29438;50.664;10.098;2024-01-15T01:44:09;-3273.50;90.10
43808;DHT22;29438;50.664;10.098;2024-01-15T01:46:36;-3273.60;90.20
43808;DHT22;29438;50.664;10.098;2024-01-15T01:49:06;-3273.60;90.20
43808;DHT22;29438;50.664;10.098;2024-01-15T01:51:34;-3273.50;90.20
43808;DHT22;29438;50.664;10.098;2024-01-15T01:54:01;-3273.60;90.30
43808;DHT22;29438;50.664;10.098;2024-01-15T01:56:27;-3273.60;90.40
43808;DHT22;29438;50.664;10.098;2024-01-15T01:58:53;-3273.60;90.30
43808;DHT22;29438;50.664;10.098;2024-01-15T02:01:18;-3273.60;90.60
43808;DHT22;29438;50.664;10.098;2024-01-15T02:03:45;-3273.60;90.50
43808;DHT22;29438;50.664;10.098;2024-01-15T02:06:10;-3273.60;90.40
43808;DHT22;29438;50.664;10.098;2024-01-15T02:08:36;-3273.60;90.40
43808;DHT22;29438;50.664;10.098;2024-01-15T02:11:02;-3273.60;90.40
43808;DHT22;29438;50.664;10.098;2024-01-15T02:13:27;-3273.60;90.50
43808;DHT22;29438;50.664;10.098;2024-01-15T02:15:53;-3273.70;90.60
43808;DHT22;29438;50.664;10.098;2024-01-15T02:18:18;-3273.60;90.60
43808;DHT22;29438;50.664;10.098;2024-01-15T02:20:45;-3273.70;90.60
43808;DHT22;29438;50.664;10.098;2024-01-15T02:23:12;-3273.70;90.50
43808;DHT22;29438;50.664;10.098;2024-01-15T02:25:40;-3273.70;90.50
43808;DHT22;29438;50.664;10.098;2024-01-15T02:28:07;-3273.70;90.40
43808;DHT22;29438;50.664;10.098;2024-01-15T02:30:37;-3273.80;90.30
43808;DHT22;29438;50.664;10.098;2024-01-15T02:33:04;-3273.70;90.30
43808;DHT22;29438;50.664;10.098;2024-01-15T02:35:29;-3273.70;90.20
43808;DHT22;29438;50.664;10.098;2024-01-15T02:37:55;-3273.70;90.30
43808;DHT22;29438;50.664;10.098;2024-01-15T02:40:20;-3273.70;90.40
43808;DHT22;29438;50.664;10.098;2024-01-15T02:42:46;-3273.70;90.60
43808;DHT22;29438;50.664;10.098;2024-01-15T02:45:11;-3273.80;90.60
43808;DHT22;29438;50.664;10.098;2024-01-15T02:47:37;-3273.80;90.50
43808;DHT22;29438;50.664;10.098;2024-01-15T02:50:02;-3273.80;90.60
43808;DHT22;29438;50.664;10.098;2024-01-15T02:52:28;-3273.80;90.60
43808;DHT22;29438;50.664;10.098;2024-01-15T02:54:54;-3273.80;90.70
43808;DHT22;29438;50.664;10.098;2024-01-15T02:57:19;-3273.80;90.60
43808;DHT22;29438;50.664;10.098;2024-01-15T02:59:45;-3273.80;90.60
43808;DHT22;29438;50.664;10.098;2024-01-15T03:02:10;-3273.80;90.60
43808;DHT22;29438;50.664;10.098;2024-01-15T03:04:36;-3273.90;90.50
43808;DHT22;29438;50.664;10.098;2024-01-15T03:07:01;-3273.90;90.50
43808;DHT22;29438;50.664;10.098;2024-01-15T03:09:27;-3273.80;90.60
43808;DHT22;29438;50.664;10.098;2024-01-15T03:11:52;-3273.80;90.50
43808;DHT22;29438;50.664;10.098;2024-01-15T03:14:18;-3273.80;90.60
43808;DHT22;29438;50.664;10.098;2024-01-15T03:16:43;-3273.80;90.80
43808;DHT22;29438;50.664;10.098;2024-01-15T03:19:09;-3273.80;91.00
43808;DHT22;29438;50.664;10.098;2024-01-15T03:21:34;-3273.70;91.10
43808;DHT22;29438;50.664;10.098;2024-01-15T03:24:00;-3273.70;91.20
43808;DHT22;29438;50.664;10.098;2024-01-15T03:26:25;-3273.70;91.30
43808;DHT22;29438;50.664;10.098;2024-01-15T03:28:51;-3273.80;91.40
43808;DHT22;29438;50.664;10.098;2024-01-15T03:31:17;-3273.80;91.30
43808;DHT22;29438;50.664;10.098;2024-01-15T03:33:42;-3273.80;91.40
43808;DHT22;29438;50.664;10.098;2024-01-15T03:36:08;-3273.80;91.40
43808;DHT22;29438;50.664;10.098;2024-01-15T03:38:34;-3273.80;91.40
43808;DHT22;29438;50.664;10.098;2024-01-15T03:40:59;-3273.80;91.30
43808;DHT22;29438;50.664;10.098;2024-01-15T03:43:27;-3273.70;91.30
43808;DHT22;29438;50.664;10.098;2024-01-15T03:45:52;-3273.70;91.00
43808;DHT22;29438;50.664;10.098;2024-01-15T03:48:18;-3273.80;90.90
43808;DHT22;29438;50.664;10.098;2024-01-15T03:50:43;-3273.80;91.00
43808;DHT22;29438;50.664;10.098;2024-01-15T03:53:09;-3273.90;90.90
43808;DHT22;29438;50.664;10.098;2024-01-15T03:55:34;-3273.80;91.00
43808;DHT22;29438;50.664;10.098;2024-01-15T03:58:00;-3273.80;91.10
43808;DHT22;29438;50.664;10.098;2024-01-15T04:00:25;-3273.80;91.20
43808;DHT22;29438;50.664;10.098;2024-01-15T04:02:51;-3273.90;91.20
43808;DHT22;29438;50.664;10.098;2024-01-15T04:05:16;-3273.80;91.10
43808;DHT22;29438;50.664;10.098;2024-01-15T04:07:42;-3273.90;91.00
43808;DHT22;29438;50.664;10.098;2024-01-15T04:10:07;-3273.80;91.00
43808;DHT22;29438;50.664;10.098;2024-01-15T04:12:33;-3273.80;91.00
43808;DHT22;29438;50.664;10.098;2024-01-15T04:14:58;-3273.80;91.00
43808;DHT22;29438;50.664;10.098;2024-01-15T04:17:24;-3273.80;91.10
43808;DHT22;29438;50.664;10.098;2024-01-15T04:19:49;-3273.80;91.10
43808;DHT22;29438;50.664;10.098;2024-01-15T04:22:15;-3273.70;91.10
43808;DHT22;29438;50.664;10.098;2024-01-15T04:24:40;-3273.80;91.00
43808;DHT22;29438;50.664;10.098;2024-01-15T04:27:07;-3273.70;91.10
43808;DHT22;29438;50.664;10.098;2024-01-15T04:29:33;-3273.70;91.10
43808;DHT22;29438;50.664;10.098;2024-01-15T04:31:58;-3273.70;91.20
43808;DHT22;29438;50.664;10.098;2024-01-15T04:34:24;-3273.70;91.30
43808;DHT22;29438;50.664;10.098;2024-01-15T04:36:49;-3273.70;91.30
43808;DHT22;29438;50.664;10.098;2024-01-15T04:39:15;-3273.70;91.40
43808;DHT22;29438;50.664;10.098;2024-01-15T04:41:40;-3273.70;91.50
43808;DHT22;29438;50.664;10.098;2024-01-15T04:44:06;-3273.70;91.50
43808;DHT22;29438;50.664;10.098;2024-01-15T04:46:31;-3273.70;91.40
43808;DHT22;29438;50.664;10.098;2024-01-15T04:48:57;-3273.70;91.40
43808;DHT22;29438;50.664;10.098;2024-01-15T04:51:22;-3273.70;91.50
43808;DHT22;29438;50.664;10.098;2024-01-15T04:53:48;-3273.70;91.50
43808;DHT22;29438;50.664;10.098;2024-01-15T04:56:13;-3273.70;91.50
43808;DHT22;29438;50.664;10.098;2024-01-15T04:58:39;-3273.70;91.50
43808;DHT22;29438;50.664;10.098;2024-01-15T05:01:04;-3273.70;91.40
43808;DHT22;29438;50.664;10.098;2024-01-15T05:03:29;-3273.70;91.60
43808;DHT22;29438;50.664;10.098;2024-01-15T05:05:55;-3273.70;91.60
43808;DHT22;29438;50.664;10.098;2024-01-15T05:08:21;-3273.70;91.60
43808;DHT22;29438;50.664;10.098;2024-01-15T05:10:47;-3273.70;91.60
43808;DHT22;29438;50.664;10.098;2024-01-15T05:13:13;-3273.70;91.60
43808;DHT22;29438;50.664;10.098;2024-01-15T05:15:38;-3273.70;91.70
43808;DHT22;29438;50.664;10.098;2024-01-15T05:18:04;-3273.70;91.60
43808;DHT22;29438;50.664;10.098;2024-01-15T05:20:30;-3273.60;91.60
43808;DHT22;29438;50.664;10.098;2024-01-15T05:22:55;-3273.70;91.80
43808;DHT22;29438;50.664;10.098;2024-01-15T05:25:21;-3273.80;91.80
43808;DHT22;29438;50.664;10.098;2024-01-15T05:27:46;-3273.80;91.70
43808;DHT22;29438;50.664;10.098;2024-01-15T05:30:12;-3273.80;91.50
43808;DHT22;29438;50.664;10.098;2024-01-15T05:32:38;-3273.80;91.40
43808;DHT22;29438;50.664;10.098;2024-01-15T05:35:03;-3273.80;91.30
43808;DHT22;29438;50.664;10.098;2024-01-15T05:37:29;-3273.70;91.30
43808;DHT22;29438;50.664;10.098;2024-01-15T05:39:54;-3273.70;91.40
43808;DHT22;29438;50.664;10.098;2024-01-15T05:42:20;-3273.60;91.50
43808;DHT22;29438;50.664;10.098;2024-01-15T05:44:45;-3273.60;91.50
43808;DHT22;29438;50.664;10.098;2024-01-15T05:47:11;-3273.60;91.40
43808;DHT22;29438;50.664;10.098;2024-01-15T05:49:36;-3273.60;91.50
43808;DHT22;29438;50.664;10.098;2024-01-15T05:52:02;-3273.60;91.60
43808;DHT22;29438;50.664;10.098;2024-01-15T05:54:27;-3273.50;91.50
43808;DHT22;29438;50.664;10.098;2024-01-15T05:56:53;-3273.50;91.60
43808;DHT22;29438;50.664;10.098;2024-01-15T05:59:18;-3273.50;91.60
43808;DHT22;29438;50.664;10.098;2024-01-15T06:01:44;-3273.50;91.60
43808;DHT22;29438;50.664;10.098;2024-01-15T06:04:09;-3273.60;91.70
43808;DHT22;29438;50.664;10.098;2024-01-15T06:06:35;-3273.60;91.60
43808;DHT22;29438;50.664;10.098;2024-01-15T06:09:01;-3273.60;91.50
43808;DHT22;29438;50.664;10.098;2024-01-15T06:11:31;-3273.60;91.60
43808;DHT22;29438;50.664;10.098;2024-01-15T06:13:56;-3273.70;91.90
43808;DHT22;29438;50.664;10.098;2024-01-15T06:16:23;-3273.70;91.80
43808;DHT22;29438;50.664;10.098;2024-01-15T06:18:49;-3273.80;91.80
43808;DHT22;29438;50.664;10.098;2024-01-15T06:21:15;-3273.90;91.70
43808;DHT22;29438;50.664;10.098;2024-01-15T06:23:41;-3273.90;91.50
43808;DHT22;29438;50.664;10.098;2024-01-15T06:26:07;-3273.80;91.50
43808;DHT22;29438;50.664;10.098;2024-01-15T06:28:32;-3273.80;91.40
43808;DHT22;29438;50.664;10.098;2024-01-15T06:30:58;-3273.80;91.20
43808;DHT22;29438;50.664;10.098;2024-01-15T06:33:23;-3273.90;91.00
43808;DHT22;29438;50.664;10.098;2024-01-15T06:35:49;-3273.80;91.10
43808;DHT22;29438;50.664;10.098;2024-01-15T06:38:15;-3273.80;91.30
43808;DHT22;29438;50.664;10.098;2024-01-15T06:40:40;-3273.90;91.50
43808;DHT22;29438;50.664;10.098;2024-01-15T06:43:11;-3273.80;91.40
43808;DHT22;29438;50.664;10.098;2024-01-15T06:45:37;-3273.80;91.50
43808;DHT22;29438;50.664;10.098;2024-01-15T06:48:03;-3273.80;91.60
43808;DHT22;29438;50.664;10.098;2024-01-15T06:50:28;-3273.70;91.60
43808;DHT22;29438;50.664;10.098;2024-01-15T06:52:54;-3273.70;91.70
43808;DHT22;29438;50.664;10.098;2024-01-15T06:55:19;-3273.60;91.70
43808;DHT22;29438;50.664;10.098;2024-01-15T06:57:45;-3273.60;91.80
43808;DHT22;29438;50.664;10.098;2024-01-15T07:00:11;-3273.50;91.70
43808;DHT22;29438;50.664;10.098;2024-01-15T07:02:36;-3273.50;91.90
43808;DHT22;29438;50.664;10.098;2024-01-15T07:05:02;-3273.50;92.10
43808;DHT22;29438;50.664;10.098;2024-01-15T07:07:30;-3273.50;92.10
43808;DHT22;29438;50.664;10.098;2024-01-15T07:09:56;-3273.50;92.20
43808;DHT22;29438;50.664;10.098;2024-01-15T07:12:21;-3273.60;92.40
43808;DHT22;29438;50.664;10.098;2024-01-15T07:14:47;-3273.60;92.20
43808;DHT22;29438;50.664;10.098;2024-01-15T07:17:12;-3273.60;92.10
43808;DHT22;29438;50.664;10.098;2024-01-15T07:19:38;-3273.60;92.20
43808;DHT22;29438;50.664;10.098;2024-01-15T07:22:03;-3273.60;92.30
43808;DHT22;29438;50.664;10.098;2024-01-15T07:24:29;-3273.60;92.20
43808;DHT22;29438;50.664;10.098;2024-01-15T07:26:55;-3273.70;92.10
43808;DHT22;29438;50.664;10.098;2024-01-15T07:29:20;-3273.60;92.00
43808;DHT22;29438;50.664;10.098;2024-01-15T07:31:51;-3273.70;92.10
43808;DHT22;29438;50.664;10.098;2024-01-15T07:34:17;-3273.70;92.10
43808;DHT22;29438;50.664;10.098;2024-01-15T07:36:46;-3273.80;92.10
43808;DHT22;29438;50.664;10.098;2024-01-15T07:39:12;-3273.80;92.10
43808;DHT22;29438;50.664;10.098;2024-01-15T07:41:37;-3273.80;92.00
43808;DHT22;29438;50.664;10.098;2024-01-15T07:44:03;-3273.90;91.90
43808;DHT22;29438;50.664;10.098;2024-01-15T07:46:29;-3273.90;91.70
43808;DHT22;29438;50.664;10.098;2024-01-15T07:48:54;-3273.90;91.50
43808;DHT22;29438;50.664;10.098;2024-01-15T07:51:23;-3273.90;91.50
43808;DHT22;29438;50.664;10.098;2024-01-15T07:53:49;-3274.00;91.50
43808;DHT22;29438;50.664;10.098;2024-01-15T07:56:14;-3274.10;91.30
43808;DHT22;29438;50.664;10.098;2024-01-15T07:58:41;-3274.20;91.10
43808;DHT22;29438;50.664;10.098;2024-01-15T08:01:07;-3274.30;90.90
43808;DHT22;29438;50.664;10.098;2024-01-15T08:03:32;-3274.40;90.40
43808;DHT22;29438;50.664;10.098;2024-01-15T08:05:59;-3274.30;90.30
43808;DHT22;29438;50.664;10.098;2024-01-15T08:08:25;-3274.40;90.40
43808;DHT22;29438;50.664;10.098;2024-01-15T08:10:52;-3274.40;90.40
43808;DHT22;29438;50.664;10.098;2024-01-15T08:13:18;-3274.40;90.30
43808;DHT22;29438;50.664;10.098;2024-01-15T08:15:44;-3274.40;89.90
43808;DHT22;29438;50.664;10.098;2024-01-15T08:18:09;-3274.40;89.90
43808;DHT22;29438;50.664;10.098;2024-01-15T08:20:35;-3274.50;89.90
43808;DHT22;29438;50.664;10.098;2024-01-15T08:23:00;-3274.40;89.90
43808;DHT22;29438;50.664;10.098;2024-01-15T08:25:26;-3274.40;89.90
43808;DHT22;29438;50.664;10.098;2024-01-15T08:27:52;-3274.50;89.80
43808;DHT22;29438;50.664;10.098;2024-01-15T08:30:17;-3274.50;89.90
43808;DHT22;29438;50.664;10.098;2024-01-15T08:32:44;-3274.60;89.90
43808;DHT22;29438;50.664;10.098;2024-01-15T08:35:10;-3274.80;89.80
43808;DHT22;29438;50.664;10.098;2024-01-15T08:37:36;-3274.80;89.70
43808;DHT22;29438;50.664;10.098;2024-01-15T08:40:02;-3275.10;89.40
43808;DHT22;29438;50.664;10.098;2024-01-15T08:42:28;-3275.20;89.00
43808;DHT22;29438;50.664;10.098;2024-01-15T08:44:54;-3275.50;88.30
43808;DHT22;29438;50.664;10.098;2024-01-15T08:47:19;-3275.40;87.80
43808;DHT22;29438;50.664;10.098;2024-01-15T08:49:45;-3275.30;88.00
43808;DHT22;29438;50.664;10.098;2024-01-15T08:52:11;-3275.40;88.20
43808;DHT22;29438;50.664;10.098;2024-01-15T08:54:37;-3275.50;88.00
43808;DHT22;29438;50.664;10.098;2024-01-15T08:57:02;-3275.70;87.80
43808;DHT22;29438;50.664;10.098;2024-01-15T08:59:28;-3275.70;87.20
43808;DHT22;29438;50.664;10.098;2024-01-15T09:01:54;-3275.40;87.80
43808;DHT22;29438;50.664;10.098;2024-01-15T09:04:22;-3275.40;88.00
43808;DHT22;29438;50.664;10.098;2024-01-15T09:06:48;-3275.40;88.00
43808;DHT22;29438;50.664;10.098;2024-01-15T09:09:13;-3275.20;88.30
43808;DHT22;29438;50.664;10.098;2024-01-15T09:11:41;-3275.40;88.30
43808;DHT22;29438;50.664;10.098;2024-01-15T09:14:07;-3275.70;87.80
43808;DHT22;29438;50.664;10.098;2024-01-15T09:16:33;-3276.20;86.40
43808;DHT22;29438;50.664;10.098;2024-01-15T09:18:59;-3276.20;85.90
43808;DHT22;29438;50.664;10.098;2024-01-15T09:21:25;-3276.30;85.70
43808;DHT22;29438;50.664;10.098;2024-01-15T09:23:51;-3276.20;85.60
43808;DHT22;29438;50.664;10.098;2024-01-15T09:26:17;-3276.10;86.10
43808;DHT22;29438;50.664;10.098;2024-01-15T09:28:42;-3276.10;86.40
43808;DHT22;29438;50.664;10.098;2024-01-15T09:31:08;-3276.00;86.60
43808;DHT22;29438;50.664;10.098;2024-01-15T09:33:33;-3276.50;85.80
43808;DHT22;29438;50.664;10.098;2024-01-15T09:36:03;-3276.60;85.20
43808;DHT22;29438;50.664;10.098;2024-01-15T09:38:31;-3276.50;85.20
43808;DHT22;29438;50.664;10.098;2024-01-15T09:40:57;0.00;84.40
43808;DHT22;29438;50.664;10.098;2024-01-15T09:43:23;-3276.60;84.80
43808;DHT22;29438;50.664;10.098;2024-01-15T09:45:50;-3276.40;85.00
43808;DHT22;29438;50.664;10.098;2024-01-15T09:48:16;-3276.70;84.40
43808;DHT22;29438;50.664;10.098;2024-01-15T09:50:42;-3276.60;84.70
43808;DHT22;29438;50.664;10.098;2024-01-15T09:53:09;-3276.60;84.70
43808;DHT22;29438;50.664;10.098;2024-01-15T09:55:38;-3276.60;85.00
43808;DHT22;29438;50.664;10.098;2024-01-15T09:58:04;-3276.60;84.70
43808;DHT22;29438;50.664;10.098;2024-01-15T10:00:30;-3276.60;84.60
43808;DHT22;29438;50.664;10.098;2024-01-15T10:02:58;-3276.50;84.80
43808;DHT22;29438;50.664;10.098;2024-01-15T10:05:26;-3276.40;85.10
43808;DHT22;29438;50.664;10.098;2024-01-15T10:07:52;-3276.70;84.20
43808;DHT22;29438;50.664;10.098;2024-01-15T10:10:18;0.00;83.70
43808;DHT22;29438;50.664;10.098;2024-01-15T10:12:44;-3276.70;84.50
43808;DHT22;29438;50.664;10.098;2024-01-15T10:15:10;-3276.50;84.50
43808;DHT22;29438;50.664;10.098;2024-01-15T10:17:38;-3276.30;84.90
43808;DHT22;29438;50.664;10.098;2024-01-15T10:20:10;-3276.00;86.00
43808;DHT22;29438;50.664;10.098;2024-01-15T10:22:40;-3276.20;86.60
43808;DHT22;29438;50.664;10.098;2024-01-15T10:25:06;-3276.70;85.60
43808;DHT22;29438;50.664;10.098;2024-01-15T10:27:31;0.00;84.80
43808;DHT22;29438;50.664;10.098;2024-01-15T10:30:00;0.10;84.20
43808;DHT22;29438;50.664;10.098;2024-01-15T10:32:28;0.10;84.00
43808;DHT22;29438;50.664;10.098;2024-01-15T10:34:54;0.20;83.90
43808;DHT22;29438;50.664;10.098;2024-01-15T10:37:20;0.30;83.20
43808;DHT22;29438;50.664;10.098;2024-01-15T10:39:48;0.20;82.90
43808;DHT22;29438;50.664;10.098;2024-01-15T10:42:14;0.10;83.70
43808;DHT22;29438;50.664;10.098;2024-01-15T10:44:41;-3276.70;84.20
43808;DHT22;29438;50.664;10.098;2024-01-15T10:47:08;-3276.30;85.50
43808;DHT22;29438;50.664;10.098;2024-01-15T10:49:34;-3276.60;85.80
43808;DHT22;29438;50.664;10.098;2024-01-15T10:52:01;0.20;85.40
43808;DHT22;29438;50.664;10.098;2024-01-15T10:54:27;1.00;82.90
43808;DHT22;29438;50.664;10.098;2024-01-15T10:56:53;1.10;81.10
43808;DHT22;29438;50.664;10.098;2024-01-15T10:59:20;1.30;80.80
43808;DHT22;29438;50.664;10.098;2024-01-15T11:01:48;1.40;81.00
43808;DHT22;29438;50.664;10.098;2024-01-15T11:04:14;1.00;80.20
43808;DHT22;29438;50.664;10.098;2024-01-15T11:06:47;1.00;81.80
43808;DHT22;29438;50.664;10.098;2024-01-15T11:09:13;0.80;81.30
43808;DHT22;29438;50.664;10.098;2024-01-15T11:11:41;0.60;82.40
43808;DHT22;29438;50.664;10.098;2024-01-15T11:14:07;0.50;82.40
43808;DHT22;29438;50.664;10.098;2024-01-15T11:16:54;0.30;82.90
43808;DHT22;29438;50.664;10.098;2024-01-15T11:19:22;0.40;83.30
43808;DHT22;29438;50.664;10.098;2024-01-15T11:21:47;0.00;83.80
43808;DHT22;29438;50.664;10.098;2024-01-15T11:24:42;-3276.70;85.00
43808;DHT22;29438;50.664;10.098;2024-01-15T11:27:07;-3276.30;86.30
43808;DHT22;29438;50.664;10.098;2024-01-15T11:29:35;-3276.40;86.30
43808;DHT22;29438;50.664;10.098;2024-01-15T11:32:04;-3276.50;86.20
43808;DHT22;29438;50.664;10.098;2024-01-15T11:34:50;-3276.30;86.30
43808;DHT22;29438;50.664;10.098;2024-01-15T11:37:16;-3276.30;86.90
43808;DHT22;29438;50.664;10.098;2024-01-15T11:39:43;-3276.20;87.00
43808;DHT22;29438;50.664;10.098;2024-01-15T11:42:10;-3276.20;87.40
43808;DHT22;29438;50.664;10.098;2024-01-15T11:44:37;-3276.20;87.30
43808;DHT22;29438;50.664;10.098;2024-01-15T11:47:04;-3276.20;87.60
43808;DHT22;29438;50.664;10.098;2024-01-15T11:52:19;-3276.60;86.60
43808;DHT22;29438;50.664;10.098;2024-01-15T11:57:52;-3276.70;86.10
43808;DHT22;29438;50.664;10.098;2024-01-15T12:00:20;-3276.70;85.80
43808;DHT22;29438;50.664;10.098;2024-01-15T12:02:47;-3276.60;86.00
43808;DHT22;29438;50.664;10.098;2024-01-15T12:05:16;-3276.70;86.00
43808;DHT22;29438;50.664;10.098;2024-01-15T12:07:43;-3276.70;85.80
43808;DHT22;29438;50.664;10.098;2024-01-15T12:10:13;-3276.70;85.10
43808;DHT22;29438;50.664;10.098;2024-01-15T12:15:24;-3276.70;85.70
43808;DHT22;29438;50.664;10.098;2024-01-15T12:17:50;-3276.50;86.40
43808;DHT22;29438;50.664;10.098;2024-01-15T12:20:17;-3276.50;86.50
43808;DHT22;29438;50.664;10.098;2024-01-15T12:22:43;-3276.60;86.70
43808;DHT22;29438;50.664;10.098;2024-01-15T12:25:09;-3276.60;86.10
43808;DHT22;29438;50.664;10.098;2024-01-15T12:27:35;-3276.60;86.10
43808;DHT22;29438;50.664;10.098;2024-01-15T12:30:00;-3276.40;85.90
43808;DHT22;29438;50.664;10.098;2024-01-15T12:32:26;-3276.20;86.90
43808;DHT22;29438;50.664;10.098;2024-01-15T12:34:51;-3276.30;87.10
43808;DHT22;29438;50.664;10.098;2024-01-15T12:37:20;-3276.40;87.10
43808;DHT22;29438;50.664;10.098;2024-01-15T12:39:46;-3276.40;87.00
43808;DHT22;29438;50.664;10.098;2024-01-15T12:42:14;-3276.40;86.80
43808;DHT22;29438;50.664;10.098;2024-01-15T12:44:39;-3276.50;86.70
43808;DHT22;29438;50.664;10.098;2024-01-15T12:47:06;-3276.60;86.50
43808;DHT22;29438;50.664;10.098;2024-01-15T12:49:31;-3276.70;86.30
43808;DHT22;29438;50.664;10.098;2024-01-15T12:51:57;0.00;85.90
43808;DHT22;29438;50.664;10.098;2024-01-15T12:54:23;0.00;85.50
43808;DHT22;29438;50.664;10.098;2024-01-15T12:56:50;0.00;85.70
43808;DHT22;29438;50.664;10.098;2024-01-15T12:59:16;-3276.70;85.70
43808;DHT22;29438;50.664;10.098;2024-01-15T13:01:41;-3276.60;85.70
43808;DHT22;29438;50.664;10.098;2024-01-15T13:04:07;-3276.50;86.30
43808;DHT22;29438;50.664;10.098;2024-01-15T13:06:35;-3276.60;86.50
43808;DHT22;29438;50.664;10.098;2024-01-15T13:09:05;-3276.60;86.50
43808;DHT22;29438;50.664;10.098;2024-01-15T13:11:31;-3276.60;86.20
43808;DHT22;29438;50.664;10.098;2024-01-15T13:13:57;-3276.60;86.30
43808;DHT22;29438;50.664;10.098;2024-01-15T13:16:22;-3276.60;87.00
43808;DHT22;29438;50.664;10.098;2024-01-15T13:18:48;-3276.70;86.90
43808;DHT22;29438;50.664;10.098;2024-01-15T13:21:15;-3276.60;87.10
43808;DHT22;29438;50.664;10.098;2024-01-15T13:23:41;-3276.50;87.40
43808;DHT22;29438;50.664;10.098;2024-01-15T13:26:06;-3276.40;87.70
43808;DHT22;29438;50.664;10.098;2024-01-15T13:28:32;-3276.10;88.00
43808;DHT22;29438;50.664;10.098;2024-01-15T13:30:58;-3276.20;88.10
43808;DHT22;29438;50.664;10.098;2024-01-15T13:33:23;-3276.00;87.90
43808;DHT22;29438;50.664;10.098;2024-01-15T13:35:49;-3276.10;88.50
43808;DHT22;29438;50.664;10.098;2024-01-15T13:38:17;-3276.10;88.30
43808;DHT22;29438;50.664;10.098;2024-01-15T13:40:43;-3276.10;88.00
43808;DHT22;29438;50.664;10.098;2024-01-15T13:43:11;-3276.10;88.00
43808;DHT22;29438;50.664;10.098;2024-01-15T13:45:36;-3276.20;88.00
43808;DHT22;29438;50.664;10.098;2024-01-15T13:48:03;-3276.20;88.00
43808;DHT22;29438;50.664;10.098;2024-01-15T13:50:31;-3276.20;87.80
43808;DHT22;29438;50.664;10.098;2024-01-15T13:52:56;-3276.20;87.80
43808;DHT22;29438;50.664;10.098;2024-01-15T13:55:22;-3276.10;87.90
43808;DHT22;29438;50.664;10.098;2024-01-15T13:57:47;-3276.10;88.10
43808;DHT22;29438;50.664;10.098;2024-01-15T14:00:13;-3276.20;88.10
43808;DHT22;29438;50.664;10.098;2024-01-15T14:02:44;-3276.30;88.00
43808;DHT22;29438;50.664;10.098;2024-01-15T14:05:09;-3276.30;87.80
43808;DHT22;29438;50.664;10.098;2024-01-15T14:07:40;-3276.20;87.90
43808;DHT22;29438;50.664;10.098;2024-01-15T14:10:07;-3276.20;87.80
43808;DHT22;29438;50.664;10.098;2024-01-15T14:12:33;-3276.20;88.00
43808;DHT22;29438;50.664;10.098;2024-01-15T14:14:59;-3276.20;87.90
43808;DHT22;29438;50.664;10.098;2024-01-15T14:17:24;-3276.20;87.70
43808;DHT22;29438;50.664;10.098;2024-01-15T14:19:50;-3276.20;88.00
43808;DHT22;29438;50.664;10.098;2024-01-15T14:22:15;-3276.20;88.00
43808;DHT22;29438;50.664;10.098;2024-01-15T14:24:41;-3276.20;88.10
43808;DHT22;29438;50.664;10.098;2024-01-15T14:27:06;-3276.10;87.90
43808;DHT22;29438;50.664;10.098;2024-01-15T14:29:32;-3276.10;88.20
43808;DHT22;29438;50.664;10.098;2024-01-15T14:31:58;-3276.20;88.20
43808;DHT22;29438;50.664;10.098;2024-01-15T14:34:25;-3276.20;88.00
43808;DHT22;29438;50.664;10.098;2024-01-15T14:36:51;-3276.30;88.00
43808;DHT22;29438;50.664;10.098;2024-01-15T14:39:19;-3276.20;88.00
43808;DHT22;29438;50.664;10.098;2024-01-15T14:41:45;-3276.20;88.10